EW3163 Weather Reports


Display with metric or nautical units.
time (UTC)temp
F
wind
direction
speed
MPH
gust
MPH
rain 1hr
in
rain 24hr
in
rain mn
in
humidity
%
barometer
mb
20200804203035 63 13 3.0 12.0 0.00 0.20 0.20 84 1003.3
20200804201509 63 320 4.0 13.0 0.00 0.20 0.20 85 1003.1
20200804200007 63 215 4.0 13.0 0.00 0.20 0.20 85 1003.1
20200804194742 64 198 2.0 12.0 0.00 0.20 0.20 82 1003.5
20200804193206 64 137 2.0 10.0 0.00 0.20 0.20 82 1003.5
20200804191704 63 106 3.0 12.0 0.00 0.20 0.20 84 1003.7
20200804190205 63 96 4.0 14.0 0.00 0.20 0.20 84 1003.0
20200804184611 64 143 4.0 19.0 0.00 0.20 0.20 84 1003.3
20200804183115 64 212 4.0 16.0 0.00 0.20 0.20 85 1003.5
20200804181557 63 210 4.0 14.0 0.00 0.20 0.20 87 1004.1
20200804180047 62 161 2.0 9.0 0.00 0.20 0.20 88 1004.3
20200804174543 62 144 2.0 10.0 0.00 0.20 0.20 89 1004.2
20200804173122 61 217 1.0 6.0 0.00 0.20 0.20 89 1004.2
20200804171600 61 149 2.0 9.0 0.00 0.20 0.20 89 1004.3
20200804171555 61 149 2.0 9.0 0.00 0.20 0.20 89 1004.2
20200804170034 61 170 2.0 8.0 0.00 0.20 0.20 90 1004.6
20200804170014 61 172 2.0 8.0 0.00 0.20 0.20 90 1004.6
20200804164509 60 115 0.0 3.0 0.00 0.20 0.20 91 1004.7
20200804163003 59 136 0.0 5.0 0.00 0.20 0.20 90 1005.0
20200804161617 59 183 1.0 4.0 0.00 0.20 0.20 90 1005.5
20200804161615 59 182 1.0 4.0 0.00 0.20 0.20 90 1005.5
20200804160126 59 211 0.0 5.0 0.00 0.20 0.20 90 1005.4
20200804154659 58 127 0.0 5.0 0.00 0.20 0.20 92 1005.7
20200804154657 58 126 0.0 5.0 0.00 0.20 0.20 92 1005.7
20200804153224 57 126 0.0 3.0 0.00 0.20 0.20 92 1006.1
20200804153220 57 127 0.0 3.0 0.00 0.20 0.20 92 1006.1
20200804151710 57 159 0.0 5.0 0.00 0.20 0.20 92 1006.1
20200804150107 56 136 0.0 7.0 0.00 0.20 0.20 92 1006.5
20200804144639 56 155 1.0 4.0 0.00 0.20 0.20 92 1006.7
20200804144636 56 207 1.0 4.0 0.00 0.20 0.20 92 1006.7
20200804141553 56 160 1.0 6.0 0.00 0.20 0.20 92 1007.3
20200804141547 56 159 1.0 6.0 0.00 0.20 0.20 92 1007.3
20200804140033 56 153 2.0 6.0 0.00 0.20 0.20 92 1007.5
20200804140030 56 144 2.0 6.0 0.00 0.20 0.20 92 1007.5
20200804134518 56 144 3.0 7.0 0.00 0.20 0.20 92 1007.7
20200804134516 56 139 3.0 7.0 0.00 0.20 0.20 92 1007.7
20200804131507 57 178 2.0 5.0 0.00 0.20 0.20 92 1008.0
20200804130003 56 134 3.0 8.0 0.00 0.20 0.20 92 1008.1
20200804124756 57 130 3.0 7.0 0.00 0.20 0.20 92 1008.1
20200804123206 56 178 2.0 6.0 0.00 0.20 0.20 93 1008.3
20200804121628 55 187 3.0 11.0 0.00 0.20 0.20 94 1008.7
20200804120050 55 170 2.0 9.0 0.00 0.20 0.20 94 1008.9
20200804120046 55 157 2.0 9.0 0.00 0.20 0.20 94 1008.9
20200804114644 54 157 2.0 7.0 0.00 0.20 0.20 94 1009.2
20200804113046 54 162 3.0 8.0 0.02 0.20 0.20 94 1009.6
20200804111602 54 112 2.0 5.0 0.04 0.20 0.20 94 1009.8
20200804110102 54 122 2.0 9.0 0.05 0.20 0.20 94 1009.9
20200804110057 54 190 2.0 9.0 0.05 0.20 0.20 94 1009.9
20200804104536 54 132 1.0 5.0 0.06 0.19 0.19 94 1010.3
20200804103017 54 167 1.0 4.0 0.08 0.18 0.18 94 1010.6
20200804101509 54 141 1.0 6.0 0.09 0.16 0.16 94 1010.9
20200804100010 54 162 2.0 8.0 0.10 0.15 0.15 94 1010.8
20200804100008 54 162 2.0 8.0 0.09 0.14 0.15 94 1010.8
20200804094631 54 133 1.0 5.0 0.09 0.12 0.12 93 1011.2
20200804093139 54 167 1.0 4.0 0.09 0.10 0.10 93 1011.5
20200804093137 54 134 1.0 4.0 0.09 0.10 0.10 93 1011.5
20200804091622 54 180 1.0 3.0 0.07 0.07 0.07 93 1011.7
20200804090146 54 152 0.0 2.0 0.05 0.05 0.05 92 1011.8
20200804084611 54 146 0.0 3.0 0.03 0.03 0.03 91 1011.9
20200804083059 54 129 0.0 2.0 0.01 0.01 0.01 91 1012.0
20200804081540 55 186 0.0 2.0 0.00 0.00 0.00 89 1012.1
20200804080043 54 236 0.0 1.0 0.00 0.00 0.00 89 1012.2
20200804074716 54 153 0.0 1.0 0.00 0.00 0.00 90 1012.2
20200804074713 54 155 0.0 1.0 0.00 0.00 0.00 90 1012.2
20200804073033 54 217 0.0 2.0 0.00 0.00 0.00 89 1012.2
20200804071540 53 224 0.0 3.0 0.00 0.00 0.00 90 1012.3
20200804070019 52 135 0.0 1.0 0.00 0.00 0.00 90 1012.6
20200804064510 51 198 0.0 2.0 0.00 0.00 0.00 89 1012.7
20200804063004 51 199 0.0 2.0 0.00 0.00 0.00 90 1013.2
20200804061656 50 197 0.0 1.0 0.00 0.00 0.00 91 1013.2
20200804054640 49 201 0.0 2.0 0.00 0.00 0.00 93 1013.7
20200804053155 49 215 0.0 2.0 0.00 0.00 0.00 94 1013.8
20200804051716 48 200 0.0 0.0 0.00 0.00 0.00 94 1013.8
20200804050103 47 209 0.0 0.0 0.00 0.00 0.00 94 1014.0
20200804044559 46 215 0.0 1.0 0.00 0.04 0.00 94 1013.9
20200804043135 45 216 0.0 0.0 0.00 0.04 0.00 94 1013.9
20200804041541 45 217 0.0 0.0 0.00 0.04 0.00 94 1014.1
20200804041536 45 216 0.0 0.0 0.00 0.04 0.00 94 1014.1
20200804040052 45 216 0.0 0.0 0.00 0.04 0.00 93 1014.1
20200804034530 45 217 0.0 0.0 0.00 0.04 0.00 93 1014.1
20200804031521 46 216 0.0 0.0 0.00 0.04 0.00 93 1014.5
20200804030008 46 217 0.0 0.0 0.00 0.04 0.00 92 1014.8
20200804030003 46 216 0.0 0.0 0.00 0.04 0.00 92 1014.8
20200804024730 46 217 0.0 0.0 0.00 0.04 0.00 92 1014.9
20200804023149 47 216 0.0 0.0 0.00 0.04 0.00 92 1014.9
20200804021745 47 217 0.0 0.0 0.00 0.04 0.00 92 1015.0
20200804020057 48 216 0.0 0.0 0.00 0.04 0.00 92 1015.1
20200804014605 48 217 0.0 0.0 0.00 0.04 0.00 92 1015.2
20200804013148 48 216 0.0 0.0 0.00 0.04 0.00 92 1015.2
20200804011544 49 216 0.0 0.0 0.00 0.04 0.00 91 1015.2
20200804010044 49 216 0.0 0.0 0.00 0.04 0.00 91 1015.3
20200804004616 50 217 0.0 0.0 0.00 0.04 0.00 90 1015.5
20200804004613 50 216 0.0 0.0 0.00 0.04 0.00 90 1015.5
20200804003031 50 217 0.0 0.0 0.00 0.04 0.00 90 1015.5
20200804001533 50 217 0.0 0.0 0.00 0.04 0.00 88 1015.6
20200804001528 50 216 0.0 0.0 0.00 0.04 0.00 88 1015.6
20200804000014 51 216 0.0 1.0 0.00 0.04 0.00 88 1015.6
20200803234506 51 193 0.0 0.0 0.00 0.04 0.00 87 1015.7
20200803233004 52 193 0.0 1.0 0.00 0.04 0.00 86 1015.8
20200803231815 53 107 0.0 0.0 0.00 0.04 0.00 84 1015.8
20200803230134 53 107 0.0 0.0 0.00 0.04 0.00 83 1015.6
20200803224657 54 107 0.0 0.0 0.00 0.04 0.04 82 1015.8
20200803223126 54 107 0.0 0.0 0.00 0.04 0.04 83 1015.8
20200803221557 55 107 0.0 1.0 0.00 0.04 0.04 82 1015.9
20200803220136 55 107 0.0 0.0 0.00 0.04 0.04 82 1015.7
20200803214627 55 107 0.0 1.0 0.00 0.04 0.04 81 1015.7
20200803213129 55 111 0.0 0.0 0.00 0.04 0.04 81 1015.8
20200803211606 55 130 0.0 0.0 0.00 0.04 0.04 80 1015.5
20200803210023 56 131 0.0 0.0 0.00 0.04 0.04 80 1015.5
20200803204618 56 131 0.0 0.0 0.00 0.04 0.04 80 1015.6